This is the latest recevied weather packets stored in our database for station/object MM1PTT-13. If no packets are shown the sender has not sent any weather packets the latest 1 day(s).
| Time | Temp. | Humidity | Pressure | Rain* | Wind** | Luminosity | Snow |
|---|---|---|---|---|---|---|---|
| 1777968945 | 10° C | 64% | 986.1 hPa | 0 mm | 1.34 m/s, 5° | 174 W/m² | - |
| 1777968644 | 10° C | 64% | 986.1 hPa | 0 mm | 1.34 m/s, 339° | 136 W/m² | - |
| 1777968342 | 10° C | 63% | 986.1 hPa | 0 mm | 1.34 m/s, 19° | 126 W/m² | - |
| 1777968042 | 10° C | 64% | 986.1 hPa | 0 mm | 0.45 m/s, 45° | 118 W/m² | - |
| 1777967742 | 10° C | 63% | 986.1 hPa | 0 mm | 1.34 m/s, 7° | 104 W/m² | - |
| 1777967446 | 11.11° C | 59% | 986.1 hPa | 0 mm | 2.24 m/s, 10° | 158 W/m² | - |
| 1777967143 | 10.56° C | 63% | 986.1 hPa | 0 mm | 2.24 m/s, 46° | 186 W/m² | - |
| 1777966842 | 11.11° C | 64% | 985.8 hPa | 0 mm | 0.89 m/s, 6° | 160 W/m² | - |
| 1777966543 | 11.67° C | 65% | 986.1 hPa | 0 mm | 0.45 m/s, 29° | 195 W/m² | - |
| 1777966242 | 10.56° C | 68% | 985.8 hPa | 0 mm | 0.89 m/s, 24° | 109 W/m² | - |
| 1777965943 | 10.56° C | 68% | 985.8 hPa | 0 mm | 0.89 m/s, 47° | 92 W/m² | - |
| 1777965643 | 11.11° C | 66% | 986.1 hPa | 0 mm | 1.34 m/s, 352° | 110 W/m² | - |
| 1777965342 | 11.11° C | 69% | 986.1 hPa | 0 mm | 0.45 m/s, 277° | 129 W/m² | - |
| 1777965044 | 10.56° C | 71% | 985.8 hPa | 0 mm | 0.89 m/s, 251° | 125 W/m² | - |
| 1777964743 | 9.44° C | 72% | 986.1 hPa | 0 mm | 1.34 m/s, 333° | 93 W/m² | - |
| 1777964442 | 9.44° C | 74% | 986.1 hPa | 0 mm | 1.79 m/s, 315° | 76 W/m² | - |
| 1777964142 | 9.44° C | 74% | 986.1 hPa | 0 mm | 0.89 m/s, 6° | 101 W/m² | - |
| 1777963842 | 8.89° C | 78% | 986.1 hPa | 0 mm | 0.89 m/s, 237° | 96 W/m² | - |
| 1777963542 | 8.33° C | 80% | 985.8 hPa | 0 mm | 0.45 m/s, 339° | 71 W/m² | - |
| 1777963242 | 8.33° C | 80% | 985.8 hPa | 0 mm | 0.45 m/s, 332° | 59 W/m² | - |
| 1777962943 | 8.33° C | 81% | 985.8 hPa | 0 mm | 0 m/s | 56 W/m² | - |
| 1777962643 | 8.33° C | 81% | 985.8 hPa | 0 mm | 0.45 m/s, 330° | 56 W/m² | - |
| 1777962343 | 8.33° C | 81% | 985.8 hPa | 0 mm | 0.45 m/s, 334° | 61 W/m² | - |
| 1777962044 | 8.33° C | 81% | 985.8 hPa | 0 mm | 0.45 m/s, 299° | 77 W/m² | - |
| 1777961744 | 8.33° C | 81% | 985.8 hPa | 0 mm | 0 m/s | 78 W/m² | - |
* Rain latest hour (hover to see other rain measurements)
** Current wind speed in m/s (hover to see current wind gust speed)